Time;durP1;ratioP1;P1;durP2;ratioP2;P2;SDS_P1;SDS_P2;PMS_P1;PMS_P2;Temp;Humidity;BMP_temperature;BMP_pressure;BME280_temperature;BME280_humidity;BME280_pressure;Samples;Min_cycle;Max_cycle;Signal;HPM_P1;HPM_P2
2021/04/09 00:01:57;;;;;;;10.30;7.90;;;1.00;99.90;;;;;;5067668;28;20530;-70
2021/04/09 00:04:24;;;;;;;10.00;7.57;;;0.90;99.90;;;;;;5067798;28;20620;-70
2021/04/09 00:06:52;;;;;;;9.23;7.43;;;0.90;99.90;;;;;;5069834;28;20492;-71
2021/04/09 00:09:19;;;;;;;15.20;9.00;;;0.90;99.90;;;;;;5072790;28;20450;-70
2021/04/09 00:11:46;;;;;;;10.63;8.17;;;1.00;99.90;;;;;;5060997;28;20463;-68
2021/04/09 00:14:14;;;;;;;12.67;9.07;;;1.00;99.90;;;;;;5074171;28;20640;-70
2021/04/09 00:16:42;;;;;;;11.57;8.67;;;1.00;99.90;;;;;;5076038;28;20586;-70
2021/04/09 00:19:12;;;;;;;13.17;8.97;;;0.90;99.90;;;;;;5061783;28;20483;-70
2021/04/09 00:21:38;;;;;;;14.73;9.73;;;0.90;99.90;;;;;;5056173;28;20535;-69
2021/04/09 00:24:05;;;;;;;13.20;9.03;;;0.90;99.90;;;;;;5053025;28;20523;-70
2021/04/09 00:26:31;;;;;;;10.97;9.30;;;0.90;99.90;;;;;;5034113;28;20551;-69
2021/04/09 00:28:59;;;;;;;13.80;8.80;;;0.80;99.90;;;;;;5052818;28;20540;-70
2021/04/09 00:31:25;;;;;;;15.73;10.57;;;0.80;99.90;;;;;;5052992;28;20802;-69
2021/04/09 00:33:52;;;;;;;13.40;9.97;;;0.80;99.90;;;;;;5052651;28;20563;-69
2021/04/09 00:36:19;;;;;;;11.47;8.73;;;0.80;99.90;;;;;;5052225;28;20543;-69
2021/04/09 00:38:45;;;;;;;12.20;8.93;;;0.80;99.90;;;;;;5052222;28;20480;-69
2021/04/09 00:41:12;;;;;;;11.07;8.50;;;0.80;99.90;;;;;;5052375;28;20491;-70
2021/04/09 00:43:39;;;;;;;11.37;9.73;;;0.70;99.90;;;;;;5052373;28;20921;-70
2021/04/09 00:46:05;;;;;;;12.10;10.53;;;0.70;99.90;;;;;;5052397;28;20530;-70
2021/04/09 00:48:31;;;;;;;13.50;9.70;;;0.60;99.90;;;;;;5052462;28;20531;-69
2021/04/09 00:50:59;;;;;;;10.83;8.43;;;0.50;99.90;;;;;;5052554;28;20900;-69
2021/04/09 00:53:27;;;;;;;11.97;8.97;;;0.50;99.90;;;;;;5052535;28;20581;-69
2021/04/09 00:55:54;;;;;;;11.67;9.67;;;0.40;99.90;;;;;;5052099;28;20459;-69
2021/04/09 00:58:21;;;;;;;12.30;8.90;;;0.40;99.90;;;;;;5052443;28;21080;-70
2021/04/09 01:00:48;;;;;;;12.00;8.97;;;0.40;99.90;;;;;;5052208;28;20539;-69
2021/04/09 01:03:15;;;;;;;11.77;8.67;;;0.40;99.90;;;;;;5051843;28;20551;-70
2021/04/09 01:05:41;;;;;;;13.37;9.43;;;0.30;99.90;;;;;;5052075;28;20887;-69
2021/04/09 01:08:09;;;;;;;9.70;8.70;;;0.30;99.90;;;;;;5052047;28;20436;-69
2021/04/09 01:10:35;;;;;;;13.07;9.40;;;0.30;99.90;;;;;;5052318;28;20882;-70
2021/04/09 01:13:01;;;;;;;13.00;9.20;;;0.30;99.90;;;;;;5051889;28;21005;-69
2021/04/09 01:15:28;;;;;;;12.67;9.53;;;0.30;99.90;;;;;;5051698;28;20566;-70
2021/04/09 01:18:01;;;;;;;12.23;9.37;;;0.30;99.90;;;;;;5051831;28;20545;-70
2021/04/09 01:20:43;;;;;;;14.60;10.30;;;0.30;99.90;;;;;;5052000;28;20964;-68
2021/04/09 01:23:57;;;;;;;17.13;10.70;;;0.20;99.90;;;;;;5051532;28;20531;-69
2021/04/09 01:26:58;;;;;;;16.10;10.53;;;0.20;99.90;;;;;;5029819;28;21043;-69
2021/04/09 01:29:49;;;;;;;12.27;9.23;;;0.10;99.90;;;;;;5051735;28;20996;-70
2021/04/09 01:32:16;;;;;;;17.67;11.07;;;0.20;99.90;;;;;;5052173;28;20523;-71
2021/04/09 01:34:47;;;;;;;14.43;10.23;;;0.30;99.90;;;;;;5051994;28;20522;-71
2021/04/09 01:37:16;;;;;;;13.13;9.33;;;0.20;99.90;;;;;;5051643;28;20555;-71
2021/04/09 01:39:49;;;;;;;18.37;12.03;;;0.30;99.90;;;;;;5051262;28;20531;-69
2021/04/09 01:42:18;;;;;;;12.03;10.73;;;0.30;99.90;;;;;;5051221;28;20452;-70
2021/04/09 01:44:48;;;;;;;14.73;9.00;;;0.30;99.90;;;;;;5051041;28;20531;-68
2021/04/09 01:47:16;;;;;;;14.90;10.80;;;0.20;99.90;;;;;;5051283;28;20463;-68
2021/04/09 01:49:43;;;;;;;14.77;11.43;;;0.20;99.90;;;;;;5051628;28;20440;-69
2021/04/09 01:52:12;;;;;;;12.97;10.17;;;0.30;99.90;;;;;;5051667;28;20857;-69
2021/04/09 01:54:40;;;;;;;14.87;10.80;;;0.20;99.90;;;;;;5050861;28;21065;-69
2021/04/09 01:57:09;;;;;;;14.77;11.30;;;0.30;99.90;;;;;;5051286;28;20488;-69
2021/04/09 01:59:39;;;;;;;12.67;10.90;;;0.30;99.90;;;;;;5051113;28;20810;-69
2021/04/09 02:02:06;;;;;;;16.50;11.47;;;0.30;99.90;;;;;;5051340;28;20510;-70
2021/04/09 02:04:34;;;;;;;15.37;11.17;;;0.20;99.90;;;;;;5050898;28;20539;-69
2021/04/09 02:07:02;;;;;;;13.17;10.47;;;0.20;99.90;;;;;;5051059;28;20555;-68
2021/04/09 02:09:31;;;;;;;14.27;10.60;;;0.20;99.90;;;;;;5051055;28;20479;-69
2021/04/09 02:11:58;;;;;;;15.67;11.20;;;0.00;99.90;;;;;;5056461;28;20479;-68
2021/04/09 02:14:26;;;;;;;14.33;10.83;;;0.00;99.90;;;;;;5050571;28;20479;-68
2021/04/09 02:16:55;;;;;;;14.03;10.97;;;0.00;99.90;;;;;;5051103;28;20547;-69
2021/04/09 02:19:23;;;;;;;13.73;10.23;;;0.00;99.90;;;;;;5050802;28;20476;-68
2021/04/09 02:21:51;;;;;;;12.60;8.83;;;-0.10;99.90;;;;;;5051066;28;20486;-69
2021/04/09 02:24:17;;;;;;;14.80;10.73;;;-0.20;99.90;;;;;;5050603;28;20527;-69
2021/04/09 02:26:44;;;;;;;13.20;10.40;;;-0.20;99.90;;;;;;5050591;28;20500;-69
2021/04/09 02:29:11;;;;;;;15.23;10.50;;;-0.20;99.90;;;;;;5051006;28;20484;-69
2021/04/09 02:31:39;;;;;;;14.57;10.17;;;-0.10;99.90;;;;;;5050827;28;20522;-69
2021/04/09 02:34:05;;;;;;;13.60;11.20;;;-0.10;99.90;;;;;;5049468;28;20512;-70
2021/04/09 02:36:33;;;;;;;15.90;9.77;;;-0.20;99.90;;;;;;5050591;28;20563;-68
2021/04/09 02:39:06;;;;;;;14.97;9.87;;;-0.10;99.90;;;;;;5050636;28;20925;-69
2021/04/09 02:41:37;;;;;;;12.17;9.80;;;-0.20;99.90;;;;;;5050944;28;20475;-70
2021/04/09 02:44:04;;;;;;;13.17;9.30;;;-0.20;99.90;;;;;;5050429;28;20579;-69
2021/04/09 02:46:37;;;;;;;13.37;9.50;;;-0.10;99.90;;;;;;5050577;28;20506;-70
2021/04/09 02:49:09;;;;;;;11.57;9.07;;;-0.20;99.90;;;;;;5050516;28;20855;-69
2021/04/09 02:51:37;;;;;;;15.00;8.93;;;-0.30;99.90;;;;;;5050615;28;20448;-69
2021/04/09 02:54:09;;;;;;;11.27;8.97;;;-0.30;99.90;;;;;;5050231;28;20567;-69
2021/04/09 02:56:40;;;;;;;12.00;8.10;;;-0.30;99.90;;;;;;5050436;28;20551;-69
2021/04/09 02:59:10;;;;;;;14.03;8.63;;;-0.30;99.90;;;;;;5050312;28;20448;-68
2021/04/09 03:01:39;;;;;;;9.60;8.00;;;-0.30;99.90;;;;;;5050303;28;20834;-68
2021/04/09 03:04:07;;;;;;;14.63;9.20;;;-0.20;99.90;;;;;;5050021;28;20482;-70
2021/04/09 03:06:36;;;;;;;14.90;10.00;;;-0.30;99.90;;;;;;5050511;28;20575;-69
2021/04/09 03:09:05;;;;;;;13.43;8.90;;;-0.30;99.90;;;;;;5050534;28;20448;-68
2021/04/09 03:11:31;;;;;;;13.70;8.40;;;-0.30;99.90;;;;;;5050344;28;20448;-69
2021/04/09 03:13:59;;;;;;;10.50;7.90;;;-0.30;99.90;;;;;;5050184;28;20563;-69
2021/04/09 03:16:27;;;;;;;13.07;9.23;;;-0.40;99.90;;;;;;5050309;28;20554;-69
2021/04/09 03:18:54;;;;;;;10.17;8.80;;;-0.40;99.90;;;;;;5050003;28;20527;-69
2021/04/09 03:21:20;;;;;;;12.47;8.30;;;-0.40;99.90;;;;;;5050221;28;20448;-70
2021/04/09 03:23:47;;;;;;;11.40;8.43;;;-0.40;99.90;;;;;;5050091;28;20863;-68
2021/04/09 03:26:14;;;;;;;12.80;8.77;;;-0.30;99.90;;;;;;5050097;28;20506;-69
2021/04/09 03:28:41;;;;;;;14.17;8.90;;;-0.40;99.90;;;;;;5050190;28;20501;-70
2021/04/09 03:31:07;;;;;;;12.90;9.00;;;-0.40;99.90;;;;;;5050107;28;20882;-68
2021/04/09 03:33:34;;;;;;;11.23;8.60;;;-0.50;99.90;;;;;;5049542;28;20555;-69
2021/04/09 03:36:00;;;;;;;14.93;9.90;;;-0.40;99.90;;;;;;5050201;28;20910;-69
2021/04/09 03:38:26;;;;;;;13.00;9.00;;;-0.50;99.90;;;;;;5050143;28;20488;-69
2021/04/09 03:40:53;;;;;;;14.60;8.67;;;-0.50;99.90;;;;;;5050482;28;20479;-70
2021/04/09 03:43:20;;;;;;;13.20;8.63;;;-0.50;99.90;;;;;;5049731;28;20499;-68
2021/04/09 03:45:46;;;;;;;9.37;7.70;;;-0.40;99.90;;;;;;5050251;28;20539;-69
2021/04/09 03:48:13;;;;;;;12.87;9.27;;;-0.40;99.90;;;;;;5067538;22;20570;-70
2021/04/09 03:50:39;;;;;;;12.23;8.77;;;-0.40;99.90;;;;;;5053325;28;20543;-67
2021/04/09 03:53:06;;;;;;;11.27;8.87;;;-0.50;99.90;;;;;;5052373;28;20526;-67
2021/04/09 03:55:33;;;;;;;14.83;8.23;;;-0.50;99.90;;;;;;5053167;28;20612;-68
2021/04/09 03:58:00;;;;;;;13.60;10.00;;;-0.60;99.90;;;;;;5053305;28;21263;-68
2021/04/09 04:00:27;;;;;;;15.93;10.40;;;-0.40;99.90;;;;;;5053074;28;20456;-69
2021/04/09 04:02:55;;;;;;;10.53;7.87;;;-0.40;99.90;;;;;;5052960;28;20930;-69
2021/04/09 04:05:22;;;;;;;10.60;8.00;;;-0.30;99.90;;;;;;5053319;28;20875;-69
2021/04/09 04:07:48;;;;;;;11.50;8.80;;;-0.40;99.90;;;;;;5053147;28;20968;-69
2021/04/09 04:10:16;;;;;;;12.40;8.67;;;-0.30;99.90;;;;;;5053131;28;21035;-68
2021/04/09 04:12:42;;;;;;;10.73;9.00;;;-0.20;99.90;;;;;;5052655;28;21124;-68
2021/04/09 04:15:09;;;;;;;10.07;7.93;;;-0.30;99.90;;;;;;5052985;28;20537;-68
2021/04/09 04:17:36;;;;;;;14.17;8.23;;;-0.30;99.90;;;;;;5053065;28;20886;-70
2021/04/09 04:20:03;;;;;;;10.83;8.20;;;-0.40;99.90;;;;;;5053022;28;20471;-69
2021/04/09 04:22:30;;;;;;;11.47;8.83;;;-0.40;99.90;;;;;;5033749;28;20551;-69
2021/04/09 04:24:56;;;;;;;11.50;8.00;;;-0.40;99.90;;;;;;5052855;28;20472;-68
2021/04/09 04:27:23;;;;;;;15.83;9.83;;;-0.40;99.90;;;;;;5052593;28;20531;-69
2021/04/09 04:29:49;;;;;;;12.60;9.23;;;-0.30;99.90;;;;;;5052788;28;20575;-69
2021/04/09 04:32:15;;;;;;;9.33;8.40;;;-0.30;99.90;;;;;;5052622;28;20540;-69
2021/04/09 04:34:43;;;;;;;18.20;9.90;;;-0.30;99.90;;;;;;5052299;28;20575;-69
2021/04/09 04:37:09;;;;;;;11.30;8.93;;;-0.30;99.90;;;;;;5052828;28;20527;-69
2021/04/09 04:39:35;;;;;;;9.93;8.93;;;-0.40;99.90;;;;;;5052644;28;20520;-69
2021/04/09 04:42:02;;;;;;;11.20;9.47;;;-0.40;99.90;;;;;;5052422;28;20990;-69
2021/04/09 04:44:28;;;;;;;10.50;8.43;;;-0.30;99.90;;;;;;5052019;28;20448;-69
2021/04/09 04:46:55;;;;;;;10.67;8.80;;;-0.30;99.90;;;;;;5052533;28;20902;-68
2021/04/09 04:49:21;;;;;;;9.60;7.57;;;-0.20;99.90;;;;;;5052468;28;21087;-69
2021/04/09 04:51:48;;;;;;;14.53;8.70;;;-0.40;99.90;;;;;;5052582;28;20444;-69
2021/04/09 04:54:15;;;;;;;11.67;8.90;;;-0.30;99.90;;;;;;5051712;28;21006;-69
2021/04/09 04:56:41;;;;;;;12.40;9.40;;;-0.30;99.90;;;;;;5051712;28;20452;-69
2021/04/09 04:59:07;;;;;;;14.37;12.00;;;-0.30;99.90;;;;;;5052089;28;20534;-69
2021/04/09 05:01:34;;;;;;;13.57;12.00;;;-0.30;99.90;;;;;;5052116;28;20927;-71
2021/04/09 05:04:00;;;;;;;15.87;11.10;;;-0.30;99.90;;;;;;5051698;28;20468;-69
2021/04/09 05:06:27;;;;;;;15.57;11.47;;;-0.30;99.90;;;;;;5051941;28;20527;-69
2021/04/09 05:08:54;;;;;;;15.13;10.47;;;-0.30;99.90;;;;;;5051874;28;20831;-69
2021/04/09 05:11:22;;;;;;;18.13;9.30;;;-0.20;99.90;;;;;;5051569;28;20535;-69
2021/04/09 05:13:48;;;;;;;13.23;9.70;;;-0.10;99.90;;;;;;5051794;28;20821;-69
2021/04/09 05:16:15;;;;;;;10.43;9.30;;;-0.10;99.90;;;;;;5051815;28;20535;-69
2021/04/09 05:18:41;;;;;;;13.00;10.87;;;-0.10;99.90;;;;;;5051872;28;20454;-70
2021/04/09 05:21:08;;;;;;;11.77;10.53;;;0.00;99.90;;;;;;5051566;28;20590;-70
2021/04/09 05:23:34;;;;;;;16.33;12.23;;;0.10;99.90;;;;;;5051322;28;20450;-71
2021/04/09 05:26:01;;;;;;;11.27;9.13;;;0.20;99.90;;;;;;5051444;28;20547;-71
2021/04/09 05:28:28;;;;;;;14.73;10.07;;;0.20;99.90;;;;;;5051765;28;20535;-70
2021/04/09 05:30:55;;;;;;;16.40;8.93;;;0.40;99.90;;;;;;5051511;28;20602;-70
2021/04/09 05:33:22;;;;;;;15.00;9.20;;;0.40;99.90;;;;;;5051016;28;20448;-70
2021/04/09 05:35:48;;;;;;;11.50;8.70;;;0.40;99.90;;;;;;5051251;28;20575;-70
2021/04/09 05:38:15;;;;;;;13.53;9.20;;;0.50;99.90;;;;;;5051640;28;20475;-69
2021/04/09 05:40:41;;;;;;;13.33;10.03;;;0.60;99.90;;;;;;5050986;28;20546;-70
2021/04/09 05:43:08;;;;;;;13.27;9.73;;;0.70;99.90;;;;;;5050896;28;20816;-70
2021/04/09 05:45:35;;;;;;;11.40;10.20;;;0.80;99.90;;;;;;5051372;28;20827;-70
2021/04/09 05:48:04;;;;;;;12.57;9.17;;;0.90;99.90;;;;;;5051098;28;20937;-70
2021/04/09 05:50:32;;;;;;;21.00;8.90;;;0.90;99.90;;;;;;5050639;28;20533;-68
2021/04/09 05:52:58;;;;;;;11.73;8.50;;;1.10;99.90;;;;;;5050392;28;20539;-68
2021/04/09 05:55:25;;;;;;;18.50;10.03;;;1.20;99.90;;;;;;5050788;28;20479;-68
2021/04/09 05:57:51;;;;;;;15.50;9.23;;;1.20;99.90;;;;;;5050720;28;20531;-68
2021/04/09 06:00:20;;;;;;;12.57;9.93;;;1.40;99.90;;;;;;5050603;28;20559;-68
2021/04/09 06:02:46;;;;;;;14.97;9.93;;;1.50;99.90;;;;;;5050589;28;20526;-69
2021/04/09 06:05:13;;;;;;;11.47;9.23;;;1.60;99.90;;;;;;5050559;28;20856;-69
2021/04/09 06:07:39;;;;;;;16.17;11.07;;;1.70;99.90;;;;;;5050430;28;20451;-73
2021/04/09 06:10:07;;;;;;;15.43;10.03;;;1.80;99.90;;;;;;5040522;28;20547;-68
2021/04/09 06:12:34;;;;;;;11.90;10.30;;;2.00;99.90;;;;;;5048590;28;20621;-67
2021/04/09 06:15:00;;;;;;;14.33;9.43;;;2.20;99.90;;;;;;5049047;28;20472;-68
2021/04/09 06:17:27;;;;;;;14.90;9.77;;;2.30;99.90;;;;;;5049366;28;20472;-69
2021/04/09 06:19:54;;;;;;;12.67;8.73;;;2.50;99.90;;;;;;5048655;28;20468;-69
2021/04/09 06:22:20;;;;;;;11.50;8.60;;;2.70;99.90;;;;;;5048625;28;20918;-67
2021/04/09 06:24:46;;;;;;;13.70;9.97;;;2.80;99.90;;;;;;5048932;28;20994;-68
2021/04/09 06:27:13;;;;;;;11.07;8.77;;;2.90;99.90;;;;;;5049383;28;20598;-69
2021/04/09 06:29:40;;;;;;;14.77;9.73;;;3.00;99.90;;;;;;5048428;28;20467;-69
2021/04/09 06:32:08;;;;;;;14.33;9.20;;;3.20;99.90;;;;;;5048898;28;20942;-69
2021/04/09 06:34:35;;;;;;;10.63;8.93;;;3.30;99.90;;;;;;5048094;28;20563;-68
2021/04/09 06:37:01;;;;;;;9.00;7.83;;;3.40;99.90;;;;;;5049234;28;20535;-68
2021/04/09 06:39:28;;;;;;;16.10;9.37;;;3.60;99.90;;;;;;5048768;28;20915;-68
2021/04/09 06:41:54;;;;;;;11.10;8.00;;;3.70;99.90;;;;;;5048904;28;20523;-68
2021/04/09 06:44:21;;;;;;;11.40;8.10;;;3.80;99.90;;;;;;5047880;28;20471;-68
2021/04/09 06:46:48;;;;;;;15.43;8.27;;;4.10;99.90;;;;;;5049120;28;20926;-68
2021/04/09 06:49:14;;;;;;;13.13;8.67;;;4.30;99.90;;;;;;5049512;28;20955;-67
2021/04/09 06:51:45;;;;;;;9.50;7.77;;;4.40;99.90;;;;;;5050144;28;20857;-68
2021/04/09 06:54:14;;;;;;;10.90;9.10;;;4.60;99.90;;;;;;5049483;28;20566;-68
2021/04/09 06:56:42;;;;;;;13.53;10.30;;;4.80;99.90;;;;;;5049728;28;20616;-68
2021/04/09 06:59:14;;;;;;;9.80;6.70;;;5.00;99.90;;;;;;5049862;28;20460;-68
2021/04/09 07:01:44;;;;;;;10.90;7.83;;;5.30;99.90;;;;;;5048076;28;20878;-67
2021/04/09 07:04:11;;;;;;;8.70;7.73;;;5.50;99.90;;;;;;5047743;28;20527;-68
2021/04/09 07:06:38;;;;;;;9.87;8.30;;;5.70;99.90;;;;;;5049793;28;20537;-67
2021/04/09 07:09:06;;;;;;;10.40;7.57;;;5.80;99.90;;;;;;5049619;28;20879;-67
2021/04/09 07:11:33;;;;;;;25.27;8.57;;;6.00;99.90;;;;;;5050269;28;20447;-68
2021/04/09 07:13:59;;;;;;;12.87;8.87;;;6.30;99.90;;;;;;5049573;28;20924;-69
2021/04/09 07:16:25;;;;;;;14.33;9.87;;;6.30;99.90;;;;;;5049772;28;20478;-69
2021/04/09 07:18:54;;;;;;;12.73;7.70;;;6.50;99.90;;;;;;5049732;28;20523;-68
2021/04/09 07:21:25;;;;;;;11.80;8.97;;;6.70;99.90;;;;;;5052335;28;20992;-69
2021/04/09 07:24:19;;;;;;;9.30;7.50;;;7.00;99.90;;;;;;5053055;28;20480;-68
2021/04/09 07:26:47;;;;;;;9.60;7.00;;;7.10;99.90;;;;;;5053175;28;20526;-68
2021/04/09 07:29:39;;;;;;;8.60;6.77;;;7.30;99.90;;;;;;5053766;28;20454;-68
2021/04/09 07:32:31;;;;;;;10.03;7.90;;;7.60;99.90;;;;;;5053383;28;20439;-68
2021/04/09 07:35:02;;;;;;;8.17;7.30;;;7.70;99.90;;;;;;5053101;28;20483;-69
2021/04/09 07:37:29;;;;;;;9.73;6.97;;;8.00;99.90;;;;;;5053207;28;21224;-70
2021/04/09 07:40:00;;;;;;;8.73;7.10;;;8.30;99.90;;;;;;5053585;28;20505;-69
2021/04/09 07:42:34;;;;;;;9.10;8.10;;;8.40;99.60;;;;;;5053160;28;20523;-69
2021/04/09 07:45:03;;;;;;;11.63;6.97;;;8.60;98.40;;;;;;5053176;28;20533;-68
2021/04/09 07:47:30;;;;;;;7.53;6.73;;;8.80;97.90;;;;;;5052911;28;20459;-69
2021/04/09 07:50:06;;;;;;;8.20;6.00;;;9.00;97.70;;;;;;5053018;28;20940;-69
2021/04/09 07:52:44;;;;;;;13.90;7.40;;;9.40;97.60;;;;;;5052613;28;20493;-69
2021/04/09 07:55:17;;;;;;;11.20;6.90;;;9.70;96.30;;;;;;5053265;28;20571;-69
2021/04/09 07:57:44;;;;;;;9.73;7.83;;;9.70;95.70;;;;;;5053183;28;20482;-70
2021/04/09 08:00:25;;;;;;;12.13;6.60;;;9.90;94.50;;;;;;5053018;28;20554;-69
2021/04/09 08:02:53;;;;;;;7.23;6.40;;;10.20;93.20;;;;;;5053045;28;20553;-66
2021/04/09 08:05:22;;;;;;;11.50;6.87;;;10.10;93.00;;;;;;5053158;28;20483;-66
2021/04/09 08:07:48;;;;;;;8.10;5.50;;;10.20;91.90;;;;;;5052960;28;20543;-66
2021/04/09 08:10:18;;;;;;;8.33;6.20;;;10.30;90.60;;;;;;5052571;28;20460;-66
2021/04/09 08:12:51;;;;;;;8.03;5.63;;;10.40;91.40;;;;;;5052511;28;20879;-66
2021/04/09 08:15:20;;;;;;;6.10;5.47;;;10.50;91.80;;;;;;5053503;28;20498;-72
2021/04/09 08:17:59;;;;;;;7.30;6.13;;;10.70;91.70;;;;;;5052687;28;20838;-67
2021/04/09 08:20:27;;;;;;;7.83;5.60;;;11.00;90.50;;;;;;5052537;28;20544;-67
2021/04/09 08:22:58;;;;;;;7.20;5.43;;;11.20;90.00;;;;;;5052000;28;20537;-67
2021/04/09 08:25:26;;;;;;;9.17;5.93;;;11.30;90.10;;;;;;5052407;28;20446;-67
2021/04/09 08:27:53;;;;;;;7.00;5.10;;;11.40;88.20;;;;;;5052499;28;20444;-67
2021/04/09 08:30:20;;;;;;;8.67;5.40;;;11.60;87.30;;;;;;5052176;28;20556;-68
2021/04/09 08:32:47;;;;;;;7.40;4.97;;;11.70;84.50;;;;;;5051265;28;20444;-67
2021/04/09 08:35:14;;;;;;;5.23;4.73;;;11.80;85.30;;;;;;5048003;28;20512;-67
2021/04/09 08:37:42;;;;;;;6.77;4.97;;;11.90;83.50;;;;;;5049828;28;20825;-69
2021/04/09 08:40:09;;;;;;;5.70;5.13;;;12.00;83.00;;;;;;5050695;28;20467;-67
2021/04/09 08:42:36;;;;;;;8.10;5.23;;;12.20;85.00;;;;;;5050336;28;20527;-72
2021/04/09 08:45:04;;;;;;;8.03;5.00;;;12.30;83.20;;;;;;5051222;28;20574;-69
2021/04/09 08:47:31;;;;;;;6.60;4.93;;;12.50;83.40;;;;;;5050897;28;20474;-68
2021/04/09 08:49:59;;;;;;;8.03;5.17;;;12.70;81.80;;;;;;5050810;28;20566;-73
2021/04/09 08:52:27;;;;;;;5.23;4.73;;;12.90;81.00;;;;;;5050295;28;20506;-69
2021/04/09 08:54:55;;;;;;;6.97;5.93;;;13.20;81.50;;;;;;5050648;28;20483;-67
2021/04/09 08:57:32;;;;;;;9.60;5.67;;;13.60;80.30;;;;;;5053135;28;20450;-66
2021/04/09 09:00:11;;;;;;;9.03;4.87;;;13.90;79.50;;;;;;5048932;28;20550;-68
2021/04/09 09:02:46;;;;;;;6.90;5.37;;;14.20;78.40;;;;;;5048727;28;20539;-67
2021/04/09 09:05:15;;;;;;;8.30;5.50;;;14.20;75.20;;;;;;5048744;28;20522;-67
2021/04/09 09:07:58;;;;;;;8.43;5.50;;;14.30;74.90;;;;;;5050295;28;20446;-67
2021/04/09 09:10:55;;;;;;;5.77;5.20;;;14.40;73.50;;;;;;5053307;28;20494;-67
2021/04/09 09:13:32;;;;;;;8.03;5.70;;;14.40;71.40;;;;;;5055029;28;20446;-68
2021/04/09 09:16:14;;;;;;;8.00;6.17;;;14.40;69.70;;;;;;5046265;28;20491;-68
2021/04/09 09:18:51;;;;;;;6.90;5.40;;;14.10;70.90;;;;;;5050209;28;20482;-70
2021/04/09 09:21:40;;;;;;;10.80;5.63;;;14.10;71.50;;;;;;5049516;28;21041;-68
2021/04/09 09:24:18;;;;;;;8.97;4.93;;;14.20;67.60;;;;;;5049261;28;20444;-69
2021/04/09 09:26:46;;;;;;;7.00;5.30;;;14.10;68.00;;;;;;5049850;28;20444;-67
2021/04/09 09:29:16;;;;;;;7.53;5.10;;;14.20;70.40;;;;;;5048632;28;20589;-71
2021/04/09 09:31:54;;;;;;;8.30;5.30;;;14.40;66.20;;;;;;5047853;28;20440;-68
2021/04/09 09:34:47;;;;;;;7.80;5.10;;;14.50;67.60;;;;;;5049396;28;20457;-68
2021/04/09 09:37:20;;;;;;;6.10;5.10;;;14.80;68.00;;;;;;5049613;28;20869;-68
2021/04/09 09:39:52;;;;;;;7.57;5.27;;;15.20;68.20;;;;;;5048950;28;20528;-68
2021/04/09 09:42:45;;;;;;;8.53;5.13;;;15.60;65.80;;;;;;5049200;28;20829;-68
2021/04/09 09:45:13;;;;;;;5.73;4.47;;;15.90;64.80;;;;;;5048340;28;20482;-68
2021/04/09 09:47:44;;;;;;;6.23;5.33;;;15.80;64.00;;;;;;5048249;28;20538;-68
2021/04/09 09:50:29;;;;;;;8.60;5.20;;;15.80;63.60;;;;;;5046620;28;20507;-68
2021/04/09 09:52:59;;;;;;;5.27;4.37;;;15.50;63.40;;;;;;5040368;28;20502;-68
2021/04/09 09:55:28;;;;;;;5.67;4.50;;;15.50;63.10;;;;;;5042052;28;20488;-68
2021/04/09 09:57:56;;;;;;;10.93;5.00;;;15.60;66.60;;;;;;5042865;28;20471;-67
2021/04/09 10:00:31;;;;;;;8.57;4.47;;;15.60;62.70;;;;;;5044231;28;21015;-68
2021/04/09 10:03:17;;;;;;;8.87;5.30;;;15.50;62.10;;;;;;5045255;28;20461;-69
2021/04/09 10:05:45;;;;;;;5.57;4.97;;;15.70;63.60;;;;;;5047268;28;20989;-68
2021/04/09 10:08:12;;;;;;;7.17;5.03;;;16.00;60.00;;;;;;5044568;28;20495;-68
2021/04/09 10:10:44;;;;;;;8.30;4.20;;;16.30;62.40;;;;;;5046178;28;20491;-67
2021/04/09 10:13:19;;;;;;;8.20;6.50;;;16.70;61.40;;;;;;5040081;28;20533;-69
2021/04/09 10:15:46;;;;;;;9.40;4.70;;;17.10;59.60;;;;;;5048578;28;20558;-68
2021/04/09 10:18:14;;;;;;;5.47;3.87;;;17.40;59.00;;;;;;5044311;28;20453;-68
2021/04/09 10:20:41;;;;;;;7.80;4.20;;;17.60;54.40;;;;;;5043601;28;20475;-68
2021/04/09 10:23:07;;;;;;;8.33;4.73;;;17.90;54.60;;;;;;5043372;28;20463;-70
2021/04/09 10:25:35;;;;;;;6.40;4.40;;;18.10;55.20;;;;;;5048381;28;20570;-68
2021/04/09 10:28:02;;;;;;;5.23;3.23;;;18.40;54.60;;;;;;5047130;28;21488;-69
2021/04/09 10:30:29;;;;;;;4.23;3.00;;;18.30;52.20;;;;;;5047284;28;20613;-68
2021/04/09 10:32:56;;;;;;;4.50;2.73;;;17.50;50.50;;;;;;5045230;28;20479;-69
2021/04/09 10:35:24;;;;;;;5.20;3.20;;;16.80;51.30;;;;;;5048914;28;20435;-68
2021/04/09 10:37:50;;;;;;;5.10;3.80;;;16.30;52.70;;;;;;5049416;28;20680;-69
2021/04/09 10:40:17;;;;;;;4.83;2.77;;;16.20;53.50;;;;;;5049344;28;20470;-68
2021/04/09 10:42:57;;;;;;;4.50;3.53;;;16.30;53.30;;;;;;5049494;28;20509;-69
2021/04/09 10:45:24;;;;;;;3.33;2.60;;;16.30;52.70;;;;;;5048762;28;20446;-68
2021/04/09 10:47:53;;;;;;;5.77;3.20;;;16.10;52.20;;;;;;5049701;28;20531;-68
2021/04/09 10:50:20;;;;;;;4.67;3.23;;;16.10;52.90;;;;;;5049416;28;20467;-68
2021/04/09 10:52:48;;;;;;;4.80;3.40;;;16.20;53.20;;;;;;5049263;28;20435;-66
2021/04/09 10:55:15;;;;;;;4.40;3.10;;;16.20;52.90;;;;;;5050792;28;20563;-65
2021/04/09 10:57:41;;;;;;;3.80;3.10;;;16.30;52.30;;;;;;5053749;28;20482;-67
2021/04/09 11:00:10;;;;;;;4.17;2.90;;;16.40;53.10;;;;;;5046518;28;20550;-68
2021/04/09 11:02:37;;;;;;;4.60;2.53;;;16.50;53.20;;;;;;5051824;28;21140;-68
2021/04/09 11:05:06;;;;;;;4.90;3.10;;;16.50;51.50;;;;;;5047491;28;20451;-68
2021/04/09 11:07:43;;;;;;;6.83;3.50;;;16.50;52.20;;;;;;5051803;28;20534;-69
2021/04/09 11:10:15;;;;;;;5.13;3.60;;;16.90;53.10;;;;;;5046879;28;20467;-69
2021/04/09 11:12:46;;;;;;;4.03;3.57;;;17.10;52.20;;;;;;5051183;28;20474;-68
2021/04/09 11:15:14;;;;;;;7.50;2.93;;;17.10;52.10;;;;;;5053119;28;20491;-71
2021/04/09 11:17:53;;;;;;;4.67;2.80;;;17.10;53.00;;;;;;5053639;28;20471;-68
2021/04/09 11:20:21;;;;;;;4.70;3.50;;;17.00;52.80;;;;;;5064390;28;20498;-70
2021/04/09 11:23:00;;;;;;;4.47;3.00;;;16.60;52.50;;;;;;5062180;28;20444;-69
2021/04/09 11:25:33;;;;;;;3.60;2.90;;;16.50;53.30;;;;;;5059222;28;20520;-69
2021/04/09 11:28:00;;;;;;;4.80;3.00;;;16.50;54.50;;;;;;5059563;28;20526;-68
2021/04/09 11:30:30;;;;;;;3.50;2.93;;;16.70;55.00;;;;;;5058918;28;20912;-68
2021/04/09 11:32:57;;;;;;;5.00;3.13;;;16.60;52.40;;;;;;5053167;28;20552;-67
2021/04/09 11:35:24;;;;;;;5.27;3.70;;;16.50;53.00;;;;;;5053039;28;20521;-69
2021/04/09 11:37:52;;;;;;;4.67;3.07;;;16.40;53.90;;;;;;5052973;28;20982;-68
2021/04/09 11:40:35;;;;;;;5.20;2.80;;;16.60;53.80;;;;;;5051260;28;20996;-67
2021/04/09 11:43:01;;;;;;;5.90;3.10;;;16.70;55.70;;;;;;5051664;28;20440;-68
2021/04/09 11:45:38;;;;;;;4.97;3.20;;;16.80;54.10;;;;;;5054150;28;20994;-69
2021/04/09 11:48:21;;;;;;;5.90;3.47;;;17.20;54.40;;;;;;5053017;28;20460;-68
2021/04/09 11:50:48;;;;;;;3.03;2.60;;;17.40;53.00;;;;;;5052342;28;21024;-68
2021/04/09 11:53:14;;;;;;;5.90;3.17;;;17.20;52.40;;;;;;5052635;28;21027;-68
2021/04/09 11:55:42;;;;;;;4.60;2.80;;;17.20;51.90;;;;;;5052438;28;20558;-67
2021/04/09 11:58:17;;;;;;;4.73;2.63;;;17.30;52.60;;;;;;5052856;28;20472;-67
2021/04/09 12:00:54;;;;;;;4.10;2.40;;;17.10;51.00;;;;;;5052705;28;20554;-68
2021/04/09 12:03:20;;;;;;;4.80;3.40;;;17.20;52.40;;;;;;5052417;28;20558;-68
2021/04/09 12:05:46;;;;;;;4.47;3.00;;;17.70;54.20;;;;;;5052726;28;20547;-67
2021/04/09 12:08:13;;;;;;;5.40;2.60;;;18.20;52.20;;;;;;5051064;28;20535;-68
2021/04/09 12:10:40;;;;;;;7.33;3.43;;;18.80;52.50;;;;;;5052580;28;20500;-69
2021/04/09 12:13:07;;;;;;;4.60;3.43;;;19.50;50.10;;;;;;5052682;28;20444;-68
2021/04/09 12:15:33;;;;;;;4.93;2.90;;;19.20;49.40;;;;;;5053055;28;20480;-68
2021/04/09 12:18:00;;;;;;;5.60;3.20;;;19.60;49.90;;;;;;5052680;28;20459;-69
2021/04/09 12:20:28;;;;;;;5.30;3.10;;;19.90;48.90;;;;;;5052227;28;20520;-68
2021/04/09 12:22:55;;;;;;;6.37;4.20;;;20.10;48.80;;;;;;5052200;28;20523;-68
2021/04/09 12:25:23;;;;;;;7.77;3.33;;;19.80;47.70;;;;;;5052241;28;20440;-72
2021/04/09 12:27:49;;;;;;;6.10;2.67;;;19.60;47.90;;;;;;5049673;28;20459;-67
2021/04/09 12:30:19;;;;;;;6.03;2.93;;;19.40;47.10;;;;;;5053590;28;21005;-67
2021/04/09 12:32:46;;;;;;;5.93;2.67;;;18.80;47.30;;;;;;5051280;28;20867;-68
2021/04/09 12:35:13;;;;;;;4.50;2.60;;;18.10;48.10;;;;;;5047796;28;20502;-68
2021/04/09 12:37:39;;;;;;;3.77;2.40;;;18.40;50.00;;;;;;5051358;28;20488;-68
2021/04/09 12:40:07;;;;;;;6.30;2.87;;;18.30;47.60;;;;;;5050543;28;20537;-68
2021/04/09 12:42:34;;;;;;;3.10;2.53;;;18.50;50.10;;;;;;5047848;28;20448;-68
2021/04/09 12:45:00;;;;;;;4.07;2.70;;;18.80;48.00;;;;;;5040035;28;20448;-68
2021/04/09 12:47:27;;;;;;;3.90;2.70;;;18.90;47.40;;;;;;5038917;28;20549;-68
2021/04/09 12:49:54;;;;;;;4.97;2.40;;;19.00;47.70;;;;;;5049338;28;20601;-68
2021/04/09 12:52:20;;;;;;;6.03;3.00;;;19.50;46.10;;;;;;5052372;28;20444;-68
2021/04/09 12:54:47;;;;;;;3.03;2.40;;;20.20;47.70;;;;;;5050199;28;20494;-69